Time;durP1;ratioP1;P1;durP2;ratioP2;P2;SDS_P1;SDS_P2;PMS_P1;PMS_P2;Temp;Humidity;BMP_temperature;BMP_pressure;BME280_temperature;BME280_humidity;BME280_pressure;Samples;Min_cycle;Max_cycle;Signal;HPM_P1;HPM_P2
2022/08/10 00:00:33;;;;;;;4.38;2.53;;;20.00;93.10;;;19.55;84.46;101773.09;4153892;28;20033;-75
2022/08/10 00:02:33;;;;;;;4.65;2.03;;;20.00;93.40;;;19.48;84.39;101781.03;4139018;28;20037;-75
2022/08/10 00:04:34;;;;;;;8.48;2.47;;;19.90;93.40;;;19.38;85.08;101772.47;4137543;28;20498;-75
2022/08/10 00:06:35;;;;;;;6.15;2.17;;;19.80;93.60;;;19.37;85.79;101778.00;4135642;28;20033;-75
2022/08/10 00:08:36;;;;;;;6.53;2.22;;;19.70;93.90;;;19.30;85.46;101768.06;4122240;28;20037;-75
2022/08/10 00:10:37;;;;;;;5.63;2.40;;;19.70;93.90;;;19.21;85.90;101762.97;4122742;28;20026;-75
2022/08/10 00:12:39;;;;;;;5.85;2.22;;;19.70;94.00;;;19.16;85.84;101754.69;4121575;28;20022;-75
2022/08/10 00:14:40;;;;;;;4.03;2.47;;;19.60;94.10;;;19.22;85.86;101770.84;4122419;28;20031;-75
2022/08/10 00:16:41;;;;;;;4.20;1.95;;;19.60;94.10;;;19.17;86.15;101759.88;4121185;28;20398;-75
2022/08/10 00:18:42;;;;;;;3.97;1.90;;;19.60;94.30;;;19.19;86.49;101770.38;4121226;28;20042;-75
2022/08/10 00:20:43;;;;;;;5.07;2.35;;;19.50;94.40;;;19.18;86.31;101763.34;4126543;28;20019;-75
2022/08/10 00:22:44;;;;;;;5.55;2.55;;;19.60;94.50;;;19.15;86.68;101758.38;4138724;28;20113;-75
2022/08/10 00:24:45;;;;;;;3.92;2.35;;;19.50;94.60;;;19.14;87.10;101759.41;4137325;28;20069;-75
2022/08/10 00:26:45;;;;;;;5.72;2.35;;;19.50;94.80;;;19.02;87.30;101752.88;4125014;28;20031;-75
2022/08/10 00:28:46;;;;;;;7.45;2.38;;;19.50;94.90;;;18.86;87.34;101732.53;4121191;28;20038;-75
2022/08/10 00:30:47;;;;;;;7.20;2.20;;;19.40;94.90;;;19.05;87.40;101755.19;4122341;28;20034;-75
2022/08/10 00:32:48;;;;;;;6.32;2.10;;;19.40;95.00;;;18.99;87.43;101745.25;4121027;28;20050;-75
2022/08/10 00:34:49;;;;;;;4.38;2.00;;;19.40;95.10;;;19.03;88.10;101751.84;4122306;28;20026;-75
2022/08/10 00:36:50;;;;;;;4.38;2.60;;;19.40;95.20;;;19.02;87.82;101758.25;4121080;28;20027;-75
2022/08/10 00:38:51;;;;;;;6.70;2.40;;;19.40;95.30;;;19.01;87.37;101754.72;4122269;28;20475;-75
2022/08/10 00:40:52;;;;;;;5.55;2.15;;;19.40;95.20;;;18.96;87.40;101741.09;4122460;28;20038;-75
2022/08/10 00:42:53;;;;;;;9.15;2.17;;;19.40;95.20;;;19.00;87.12;101742.38;4120855;28;20027;-75
2022/08/10 00:44:54;;;;;;;4.90;2.20;;;19.40;95.20;;;19.04;87.09;101748.16;4121334;28;20027;-75
2022/08/10 00:46:55;;;;;;;8.00;2.65;;;19.40;95.20;;;19.04;87.25;101750.84;4121196;28;20035;-75
2022/08/10 00:48:56;;;;;;;6.18;2.30;;;19.40;95.30;;;19.03;87.22;101741.16;4122144;28;20027;-75
2022/08/10 00:51:00;;;;;;;4.60;2.13;;;19.40;95.20;;;19.07;87.00;101743.28;4120972;28;20069;-75
2022/08/10 00:53:01;;;;;;;4.38;2.38;;;19.40;95.20;;;19.06;87.17;101746.13;4104911;29;20123;-75
2022/08/10 00:55:04;;;;;;;4.75;2.40;;;19.40;95.30;;;18.98;86.85;101736.38;4118449;28;20543;-75
2022/08/10 00:57:05;;;;;;;5.78;2.45;;;19.40;95.30;;;18.97;86.89;101731.22;4136868;28;20520;-75
2022/08/10 00:59:06;;;;;;;4.35;2.20;;;19.40;95.30;;;19.01;87.18;101743.19;4136540;28;20045;-75
2022/08/10 01:01:07;;;;;;;6.97;2.25;;;19.40;95.30;;;18.95;87.25;101739.44;4138138;28;20462;-75
2022/08/10 01:03:08;;;;;;;6.30;2.78;;;19.30;95.30;;;18.88;87.52;101726.97;4136796;28;20445;-75
2022/08/10 01:05:13;;;;;;;8.40;2.50;;;19.30;95.40;;;18.70;87.48;101698.78;4136674;28;20040;-75
2022/08/10 01:07:43;;;;;;;5.88;2.70;;;19.30;95.50;;;18.90;87.51;101741.00;4137986;28;20031;-75
2022/08/10 01:10:26;;;;;;;5.80;2.75;;;19.30;95.60;;;18.86;87.69;101734.38;4137999;28;20026;-75
2022/08/10 01:12:34;;;;;;;4.38;2.00;;;19.30;95.60;;;18.80;87.94;101725.25;4138159;28;20045;-75
2022/08/10 01:14:59;;;;;;;5.00;2.70;;;19.20;95.60;;;18.81;87.93;101726.09;4136483;28;20062;-75
2022/08/10 01:17:14;;;;;;;8.73;2.70;;;19.20;95.70;;;18.77;88.17;101733.63;4136551;28;20472;-75
2022/08/10 01:19:32;;;;;;;5.28;2.38;;;19.20;95.80;;;18.73;88.77;101733.16;4131656;28;20062;-75
2022/08/10 01:22:07;;;;;;;8.23;2.25;;;19.20;95.90;;;18.67;89.15;101728.56;4126068;28;20038;-75
2022/08/10 01:24:34;;;;;;;6.43;2.80;;;19.10;96.00;;;18.58;89.42;101718.97;4120657;28;20069;-75
2022/08/10 01:26:47;;;;;;;6.30;2.35;;;19.00;96.10;;;18.62;89.25;101728.28;4132387;28;20034;-75
2022/08/10 01:29:25;;;;;;;6.15;2.53;;;19.00;96.20;;;18.57;89.52;101724.53;4121347;28;20034;-75
2022/08/10 01:31:33;;;;;;;6.35;2.30;;;19.00;96.50;;;18.48;90.13;101710.41;4120189;28;20043;-75
2022/08/10 01:33:42;;;;;;;4.40;2.30;;;19.00;96.50;;;18.52;90.00;101727.72;4120206;28;20062;-75
2022/08/10 01:35:56;;;;;;;6.30;2.85;;;18.90;96.50;;;18.37;90.24;101702.00;4105009;28;20031;-75
2022/08/10 01:38:33;;;;;;;8.63;2.45;;;18.90;96.60;;;18.44;90.05;101713.59;4112208;28;20071;-75
2022/08/10 01:40:40;;;;;;;5.30;2.38;;;18.90;96.60;;;18.39;90.10;101703.47;4129479;28;20042;-75
2022/08/10 01:42:44;;;;;;;6.35;2.65;;;18.90;96.60;;;18.42;89.99;101707.63;4137473;28;20030;-75
2022/08/10 01:45:03;;;;;;;6.95;2.40;;;18.90;96.60;;;18.47;90.08;101719.41;4136117;28;20037;-75
2022/08/10 01:49:31;;;;;;;12.88;2.65;;;18.80;96.60;;;18.33;90.60;101698.03;4137345;28;20120;-75
2022/08/10 01:52:05;;;;;;;6.05;2.45;;;18.80;96.80;;;18.35;90.75;101704.00;4136338;28;20034;-75
2022/08/10 01:54:13;;;;;;;5.10;2.67;;;18.80;96.90;;;18.28;90.59;101698.56;4114971;28;20393;-75
2022/08/10 01:56:15;;;;;;;6.10;2.67;;;18.80;96.80;;;18.33;90.85;101706.88;4119735;28;20438;-75
2022/08/10 01:58:19;;;;;;;6.07;2.80;;;18.80;96.90;;;18.36;90.51;101705.69;4135851;28;20022;-75
2022/08/10 02:00:20;;;;;;;5.05;2.55;;;18.80;96.90;;;18.35;90.54;101707.53;4135920;28;20031;-75
2022/08/10 02:02:22;;;;;;;5.97;2.42;;;18.80;96.90;;;18.37;90.59;101712.69;4135999;28;20058;-75
2022/08/10 02:04:25;;;;;;;4.63;2.28;;;18.80;96.90;;;18.38;90.60;101715.16;4135699;28;20031;-75
2022/08/10 02:06:29;;;;;;;4.53;2.80;;;18.80;96.90;;;18.33;90.61;101712.22;4132682;28;20069;-74
2022/08/10 02:08:32;;;;;;;9.60;3.00;;;18.80;96.90;;;18.30;91.03;101717.09;4130226;28;20038;-75
2022/08/10 02:10:35;;;;;;;6.40;2.80;;;18.80;97.00;;;18.26;90.89;101708.63;4135816;28;20085;-75
2022/08/10 02:12:38;;;;;;;5.22;2.80;;;18.70;97.00;;;18.29;90.85;101715.44;4119888;28;20034;-75
2022/08/10 02:14:57;;;;;;;6.93;2.70;;;18.70;97.10;;;18.27;91.07;101720.97;4135528;28;20121;-75
2022/08/10 02:17:04;;;;;;;4.32;2.55;;;18.70;97.10;;;18.25;91.29;101720.31;4136696;28;20285;-75
2022/08/10 02:19:06;;;;;;;5.57;2.42;;;18.70;97.10;;;18.18;91.32;101711.38;4116081;28;20030;-75
2022/08/10 02:21:08;;;;;;;6.18;3.33;;;18.60;97.20;;;18.11;91.80;101718.44;4103686;29;20090;-75
2022/08/10 02:23:28;;;;;;;6.43;2.63;;;18.60;97.30;;;18.16;91.87;101729.41;4113698;28;20031;-75
2022/08/10 02:25:30;;;;;;;5.90;3.00;;;18.60;97.40;;;18.12;91.71;101720.13;4125451;28;20034;-75
2022/08/10 02:27:32;;;;;;;8.68;3.33;;;18.60;97.40;;;18.13;91.92;101724.44;4119694;28;20027;-75
2022/08/10 02:29:35;;;;;;;6.97;3.05;;;18.50;97.40;;;18.09;91.85;101720.47;4103125;29;20027;-75
2022/08/10 02:31:38;;;;;;;7.47;2.83;;;18.50;97.50;;;18.03;91.95;101707.84;4118834;28;20030;-75
2022/08/10 02:33:45;;;;;;;7.78;2.80;;;18.50;97.60;;;18.07;92.04;101717.97;4119499;28;20023;-75
2022/08/10 02:35:49;;;;;;;4.80;2.75;;;18.50;97.50;;;18.02;92.00;101706.19;4119357;28;20031;-75
2022/08/10 02:37:56;;;;;;;6.30;2.92;;;18.50;97.60;;;18.05;92.18;101724.50;4103319;28;20019;-75
2022/08/10 02:39:57;;;;;;;4.38;2.92;;;18.50;97.70;;;18.02;92.33;101722.19;4120557;28;20411;-75
2022/08/10 02:42:04;;;;;;;5.15;3.00;;;18.50;97.70;;;17.98;92.68;101723.59;4120494;28;20030;-75
2022/08/10 02:44:34;;;;;;;7.38;3.13;;;18.40;97.70;;;17.94;92.61;101723.13;4119050;28;20517;-75
2022/08/10 02:46:53;;;;;;;7.38;2.60;;;18.40;97.80;;;17.92;92.73;101726.97;4119176;28;20035;-75
2022/08/10 02:49:02;;;;;;;9.00;2.85;;;18.40;97.90;;;17.89;92.98;101724.66;4137975;28;20108;-75
2022/08/10 02:51:13;;;;;;;6.88;2.80;;;18.30;97.90;;;17.86;93.20;101727.69;4136421;28;20452;-75
2022/08/10 02:53:33;;;;;;;5.65;2.88;;;18.30;98.00;;;17.82;93.40;101719.22;4135607;28;20030;-75
2022/08/10 02:55:54;;;;;;;4.57;2.50;;;18.30;98.10;;;17.83;93.35;101723.53;4135101;28;20429;-75
2022/08/10 02:57:57;;;;;;;6.30;2.58;;;18.30;98.10;;;17.79;93.51;101721.41;4135254;28;20026;-75
2022/08/10 03:00:06;;;;;;;6.53;3.03;;;18.20;98.20;;;17.74;93.95;101715.78;4134500;28;20019;-75
2022/08/10 03:02:13;;;;;;;5.70;3.00;;;18.20;98.30;;;17.73;94.22;101722.13;4135465;28;20109;-75
2022/08/10 03:04:23;;;;;;;7.97;2.92;;;18.20;98.40;;;17.62;94.68;101716.19;4135301;28;20062;-75
2022/08/10 03:06:31;;;;;;;8.10;3.03;;;18.10;98.50;;;17.68;94.95;101726.13;4136244;28;20157;-75
2022/08/10 03:08:41;;;;;;;6.63;3.17;;;18.10;98.60;;;17.58;94.75;101711.41;4135222;28;20027;-75
2022/08/10 03:10:44;;;;;;;4.45;2.42;;;18.10;98.60;;;17.54;95.17;101713.56;4135112;28;20397;-75
2022/08/10 03:12:49;;;;;;;5.28;2.92;;;18.10;98.70;;;17.54;95.27;101716.25;4118672;28;20043;-75
2022/08/10 03:14:51;;;;;;;6.95;3.03;;;18.00;98.80;;;17.57;95.34;101726.56;4135020;28;20042;-75
2022/08/10 03:16:55;;;;;;;5.35;2.60;;;18.00;98.90;;;17.54;95.60;101726.06;4118542;28;20096;-75
2022/08/10 03:19:01;;;;;;;4.13;2.95;;;18.00;98.90;;;17.46;95.55;101713.63;4148682;28;20083;-75
2022/08/10 03:21:03;;;;;;;5.30;2.65;;;17.90;99.00;;;17.54;95.90;101724.25;4103180;28;20474;-75
2022/08/10 03:23:12;;;;;;;7.10;2.88;;;17.90;99.10;;;17.51;95.93;101723.75;4135046;28;20035;-75
2022/08/10 03:25:13;;;;;;;9.48;2.83;;;17.90;99.20;;;17.44;96.13;101709.47;4125176;28;20089;-75
2022/08/10 03:27:16;;;;;;;6.78;2.70;;;17.90;99.30;;;17.50;96.32;101724.75;4118952;28;20038;-75
2022/08/10 03:29:19;;;;;;;5.68;3.22;;;17.90;99.30;;;17.46;96.38;101726.94;4119809;28;20109;-75
2022/08/10 03:31:20;;;;;;;8.17;3.57;;;17.90;99.40;;;17.41;96.44;101710.63;4118911;28;20041;-75
2022/08/10 03:33:24;;;;;;;9.32;3.50;;;17.90;99.50;;;17.39;96.30;101709.97;4118675;28;20035;-75
2022/08/10 03:35:26;;;;;;;5.43;3.30;;;17.90;99.50;;;17.46;96.61;101723.44;4103043;28;20073;-75
2022/08/10 03:37:27;;;;;;;8.02;3.72;;;17.90;99.60;;;17.39;96.67;101704.66;4133912;28;20057;-75
2022/08/10 03:39:28;;;;;;;5.03;2.85;;;17.80;99.60;;;17.37;96.83;101703.16;4134894;28;20532;-75
2022/08/10 03:41:36;;;;;;;6.97;2.97;;;17.90;99.60;;;17.39;97.13;101715.31;4134778;28;20034;-75
2022/08/10 03:43:39;;;;;;;7.82;3.20;;;17.80;99.70;;;17.31;97.39;101710.03;4150793;28;20014;-75
2022/08/10 03:45:41;;;;;;;6.28;3.03;;;17.80;99.80;;;17.28;97.44;101706.91;4134768;28;20030;-75
2022/08/10 03:47:45;;;;;;;8.77;3.50;;;17.70;99.80;;;17.27;97.91;101708.72;4118587;28;20516;-75
2022/08/10 03:49:48;;;;;;;3.75;2.85;;;17.70;99.90;;;17.24;98.22;101708.25;4134608;28;20089;-75
2022/08/10 03:51:50;;;;;;;11.80;3.50;;;17.70;99.90;;;17.25;98.49;101720.56;4118660;28;20031;-75
2022/08/10 03:53:51;;;;;;;7.22;3.13;;;17.70;99.90;;;17.19;98.30;101706.13;4134669;28;20023;-75
2022/08/10 03:55:53;;;;;;;9.68;3.13;;;17.60;99.90;;;17.18;98.42;101709.78;4134613;28;20489;-75
2022/08/10 03:57:54;;;;;;;7.85;3.38;;;17.60;99.90;;;17.20;98.76;101710.44;4134555;28;20097;-75
2022/08/10 03:59:56;;;;;;;5.93;2.88;;;17.60;99.90;;;17.12;99.12;101702.47;4134687;28;20023;-75
2022/08/10 04:01:57;;;;;;;7.35;3.53;;;17.60;99.90;;;17.07;99.63;101707.50;4134364;28;20034;-75
2022/08/10 04:03:58;;;;;;;5.20;2.90;;;17.50;99.90;;;17.05;99.42;101709.53;4134537;28;20033;-75
2022/08/10 04:06:00;;;;;;;10.02;4.05;;;17.50;99.90;;;16.98;99.94;101692.56;4134664;28;20022;-75
2022/08/10 04:08:01;;;;;;;8.15;3.10;;;17.40;99.90;;;17.00;100.00;101718.03;4134868;28;20027;-75
2022/08/10 04:10:02;;;;;;;7.18;3.50;;;17.40;99.90;;;17.00;100.00;101718.03;4134604;28;20114;-75
2022/08/10 04:12:05;;;;;;;4.18;3.40;;;17.40;99.90;;;16.98;100.00;101712.06;4136798;28;20023;-75
2022/08/10 04:14:06;;;;;;;8.38;3.33;;;17.40;99.90;;;16.91;100.00;101708.41;4137094;28;20073;-75
2022/08/10 04:16:06;;;;;;;9.63;3.70;;;17.40;99.90;;;16.94;100.00;101712.56;4137666;28;20030;-75
2022/08/10 04:18:07;;;;;;;6.35;3.38;;;17.40;99.90;;;16.95;100.00;101706.25;4138502;28;20056;-75
2022/08/10 04:20:52;;;;;;;7.22;3.60;;;17.40;99.90;;;16.93;100.00;101717.09;4125383;28;20086;-75
2022/08/10 04:22:56;;;;;;;8.38;2.92;;;17.40;99.90;;;16.95;100.00;101707.06;4129050;28;20173;-75
2022/08/10 04:25:02;;;;;;;;;;;17.40;99.90;;;16.94;100.00;101710.75;4126417;28;20027;-75
2022/08/10 04:27:03;;;;;;;6.07;3.40;;;17.40;99.90;;;16.92;100.00;101709.25;4122146;28;19910;-75
2022/08/10 04:29:05;;;;;;;4.28;3.13;;;17.40;99.90;;;16.91;100.00;101705.75;4121097;28;20030;-75
2022/08/10 04:31:09;;;;;;;6.88;3.72;;;17.40;99.90;;;16.91;100.00;101708.41;4121524;28;20050;-75
2022/08/10 04:33:12;;;;;;;5.63;3.17;;;17.40;99.90;;;16.88;100.00;101707.94;4121263;28;20112;-75
2022/08/10 04:35:17;;;;;;;6.65;3.20;;;17.30;99.90;;;16.88;100.00;101705.25;4137659;28;20035;-75
2022/08/10 04:37:21;;;;;;;9.10;3.72;;;17.30;99.90;;;16.77;100.00;101695.81;4137099;28;20034;-75
2022/08/10 04:39:22;;;;;;;9.90;3.65;;;17.30;99.90;;;16.62;100.00;101678.91;4137303;28;20517;-75
2022/08/10 04:41:24;;;;;;;6.88;3.70;;;17.30;99.90;;;16.78;100.00;101708.16;4137153;28;20030;-75
2022/08/10 04:43:25;;;;;;;7.35;3.67;;;17.20;99.90;;;16.75;100.00;101703.19;4121108;28;20033;-75
2022/08/10 04:45:26;;;;;;;8.30;3.70;;;17.20;99.90;;;16.75;100.00;101713.00;4137179;28;20030;-75
2022/08/10 04:47:27;;;;;;;5.88;3.30;;;17.20;99.90;;;16.76;100.00;101709.31;4138354;28;20030;-75
2022/08/10 04:49:28;;;;;;;6.18;3.17;;;17.20;99.90;;;16.65;100.00;101699.88;4138282;28;20062;-75
2022/08/10 04:51:29;;;;;;;6.30;3.40;;;17.20;99.90;;;16.69;100.00;101709.19;4137108;28;20030;-75
2022/08/10 04:53:30;;;;;;;8.05;4.32;;;17.20;99.90;;;16.69;100.00;101703.03;4137048;28;20038;-75
2022/08/10 04:55:31;;;;;;;7.60;4.00;;;17.10;99.90;;;16.67;100.00;101705.00;4120708;28;20069;-75
2022/08/10 04:57:32;;;;;;;7.10;4.38;;;17.10;99.90;;;16.66;100.00;101708.69;4153151;28;20076;-75
2022/08/10 04:59:33;;;;;;;7.78;4.78;;;17.10;99.90;;;16.62;100.00;101694.88;4136729;28;20058;-75
2022/08/10 05:01:37;;;;;;;8.27;3.30;;;17.10;99.90;;;16.64;100.00;101703.53;4120870;28;20038;-75
2022/08/10 05:03:37;;;;;;;7.45;3.65;;;17.10;99.90;;;16.66;100.00;101703.38;4136977;28;20019;-75
2022/08/10 05:05:38;;;;;;;5.65;3.53;;;17.10;99.90;;;16.66;100.00;101703.38;4136907;28;20033;-75
2022/08/10 05:07:39;;;;;;;6.68;4.03;;;17.10;99.90;;;16.68;100.00;101702.19;4137206;28;20022;-75
2022/08/10 05:09:41;;;;;;;10.73;4.03;;;17.10;99.90;;;16.59;100.00;101687.25;4137973;28;20101;-75
2022/08/10 05:11:42;;;;;;;10.38;4.43;;;17.10;99.90;;;16.68;100.00;101710.19;4136952;28;20069;-75
2022/08/10 05:13:44;;;;;;;4.95;3.78;;;17.10;99.90;;;16.68;100.00;101702.19;4136344;28;20022;-75
2022/08/10 05:15:45;;;;;;;9.90;3.92;;;17.10;99.90;;;16.70;100.00;101707.34;4136495;28;20038;-75
2022/08/10 05:17:46;;;;;;;4.93;3.65;;;17.10;99.90;;;16.71;100.00;101709.84;4136371;28;20105;-75
2022/08/10 05:19:47;;;;;;;7.28;4.22;;;17.20;99.90;;;16.71;100.00;101712.50;4128471;28;20440;-75
2022/08/10 05:21:48;;;;;;;5.63;4.03;;;17.20;99.90;;;16.63;100.00;101703.72;4121614;28;20066;-75
2022/08/10 05:23:49;;;;;;;6.30;3.78;;;17.20;99.90;;;16.69;100.00;101708.34;4119809;28;20066;-75
2022/08/10 05:25:49;;;;;;;6.72;3.83;;;17.20;99.90;;;16.76;100.00;101715.47;4126460;28;20058;-75
2022/08/10 05:27:50;;;;;;;7.13;4.18;;;17.20;99.90;;;16.69;100.00;101703.88;4121401;28;20279;-75
2022/08/10 05:29:51;;;;;;;9.00;4.32;;;17.20;99.90;;;16.77;100.00;101710.97;4120350;28;20050;-75
2022/08/10 05:31:52;;;;;;;6.47;3.70;;;17.20;99.90;;;16.77;100.00;101721.63;4121179;28;20035;-75
2022/08/10 05:33:54;;;;;;;10.07;4.00;;;17.20;99.90;;;16.62;100.00;101688.72;4120487;28;20102;-75
2022/08/10 05:35:56;;;;;;;5.60;3.45;;;17.20;99.90;;;16.79;100.00;101708.97;4121388;28;20401;-75
2022/08/10 05:37:59;;;;;;;9.68;3.88;;;17.20;99.90;;;16.82;100.00;101720.13;4120405;28;20034;-75
2022/08/10 05:40:04;;;;;;;15.68;4.25;;;17.20;99.90;;;16.82;100.00;101719.28;4121269;28;20023;-75
2022/08/10 05:42:05;;;;;;;5.28;3.72;;;17.20;99.90;;;16.79;100.00;101711.63;4121343;28;20047;-75
2022/08/10 05:44:06;;;;;;;6.68;3.25;;;17.30;99.90;;;16.85;100.00;101721.59;4119943;28;20105;-75
2022/08/10 05:46:07;;;;;;;6.97;3.70;;;17.30;99.90;;;16.84;100.00;101712.81;4121217;28;20022;-75
2022/08/10 05:48:08;;;;;;;10.80;3.90;;;17.30;99.90;;;16.75;100.00;101699.69;4119894;28;20026;-75
2022/08/10 05:50:11;;;;;;;8.32;4.00;;;17.30;99.90;;;16.87;100.00;101709.78;4116999;28;20073;-75
2022/08/10 05:52:12;;;;;;;9.90;4.30;;;17.30;99.90;;;16.93;100.00;101721.59;4136194;28;20065;-75
2022/08/10 05:54:16;;;;;;;7.05;3.97;;;17.40;99.90;;;16.94;100.00;101717.91;4120048;28;20035;-75
2022/08/10 05:56:17;;;;;;;7.05;3.38;;;17.40;99.90;;;17.01;100.00;101711.72;4135986;28;20030;-75
2022/08/10 05:58:18;;;;;;;7.10;3.67;;;17.40;99.90;;;17.03;100.00;101723.03;4137078;28;20034;-75
2022/08/10 06:00:20;;;;;;;7.47;3.50;;;17.50;99.90;;;17.11;100.00;101722.97;4135771;28;20026;-75
2022/08/10 06:02:35;;;;;;;6.80;3.72;;;17.50;99.90;;;17.10;100.00;101712.50;4136186;28;20073;-75
2022/08/10 06:04:43;;;;;;;7.82;3.85;;;17.60;99.90;;;17.19;100.00;101722.13;4136176;28;20022;-75
2022/08/10 06:06:46;;;;;;;8.18;3.30;;;17.60;99.90;;;17.18;100.00;101715.09;4137116;28;20041;-75
2022/08/10 06:08:49;;;;;;;5.30;3.55;;;17.70;99.90;;;17.15;100.00;101694.97;4136077;28;20054;-75
2022/08/10 06:10:55;;;;;;;10.48;4.03;;;17.70;99.90;;;17.23;100.00;101699.44;4135919;28;20040;-75
2022/08/10 06:15:18;;;;;;;4.97;3.45;;;17.80;99.90;;;17.42;100.00;101714.97;4136953;28;20120;-75
2022/08/10 06:17:20;;;;;;;4.40;3.85;;;17.80;99.90;;;17.48;99.81;101721.44;4135531;28;20522;-75
2022/08/10 06:19:21;;;;;;;7.32;3.53;;;17.90;99.90;;;17.51;99.43;101711.25;4129777;28;20029;-75
2022/08/10 06:21:23;;;;;;;7.13;2.95;;;18.00;99.90;;;17.52;99.29;101709.41;4119514;28;20509;-75
2022/08/10 06:23:27;;;;;;;5.30;3.50;;;18.00;99.90;;;17.58;99.13;101712.22;4116688;28;20037;-75
2022/08/10 06:25:29;;;;;;;6.32;4.20;;;18.00;99.90;;;17.49;98.78;101683.91;4125626;28;20018;-75
2022/08/10 06:27:30;;;;;;;5.63;3.92;;;18.10;99.90;;;17.71;98.70;101716.13;4119481;28;20035;-75
2022/08/10 06:29:36;;;;;;;12.07;3.50;;;18.10;99.90;;;17.73;98.11;101698.94;4119481;28;20561;-75
2022/08/10 06:31:44;;;;;;;9.95;3.50;;;18.20;99.90;;;17.80;97.96;101707.88;4119223;28;20082;-75
2022/08/10 06:33:45;;;;;;;6.85;3.33;;;18.30;99.90;;;17.80;97.91;101696.38;4123581;28;20030;-75
2022/08/10 06:35:51;;;;;;;9.75;3.58;;;18.30;99.90;;;17.85;97.87;101697.50;4135401;28;20084;-75
2022/08/10 06:37:56;;;;;;;6.38;3.65;;;18.40;99.90;;;17.97;97.47;101712.06;4136638;28;20065;-75
2022/08/10 06:39:56;;;;;;;9.13;3.80;;;18.40;99.90;;;17.94;97.28;101695.59;4136406;28;20027;-75
2022/08/10 06:42:11;;;;;;;9.32;3.70;;;18.50;99.90;;;18.05;97.09;101708.50;4134133;28;20049;-75
2022/08/10 06:44:27;;;;;;;8.32;4.13;;;18.50;99.90;;;18.03;97.13;101689.16;4125849;28;20078;-75
2022/08/10 06:46:32;;;;;;;5.78;3.33;;;18.60;99.90;;;18.17;96.26;101704.38;4104099;28;20111;-75
2022/08/10 06:49:00;;;;;;;7.28;3.45;;;18.60;99.90;;;18.20;96.05;101696.81;4103430;28;20031;-75
2022/08/10 06:51:05;;;;;;;5.85;3.42;;;18.70;99.90;;;18.23;95.77;101687.63;4119178;28;20027;-75
2022/08/10 06:53:20;;;;;;;7.90;3.95;;;18.80;99.90;;;18.39;95.06;101706.16;4108394;28;20095;-75
2022/08/10 06:55:23;;;;;;;;;;;18.80;99.90;;;18.37;94.86;101697.47;4119562;28;20031;-75
2022/08/10 06:57:30;;;;;;;5.65;3.17;;;18.90;99.90;;;18.44;94.27;101698.41;4118836;28;19946;-75
2022/08/10 06:59:45;;;;;;;4.68;3.00;;;19.00;99.90;;;18.58;94.31;101704.78;4103067;28;20426;-75
2022/08/10 07:01:53;;;;;;;9.65;3.80;;;19.00;99.90;;;18.67;93.93;101709.84;4119526;28;20030;-76
2022/08/10 07:04:31;;;;;;;7.60;3.10;;;19.10;99.90;;;18.72;92.93;101701.28;4135192;28;20402;-76
2022/08/10 07:06:40;;;;;;;6.10;3.30;;;19.20;99.90;;;18.88;92.46;101709.09;4115178;28;20505;-75
2022/08/10 07:08:42;;;;;;;9.60;3.40;;;19.30;99.90;;;18.90;92.38;101692.88;4151049;28;20032;-75
2022/08/10 07:10:46;;;;;;;6.45;3.35;;;19.40;99.90;;;19.03;91.49;101704.56;4122647;28;20026;-75
2022/08/10 07:12:50;;;;;;;6.25;3.00;;;19.40;99.90;;;19.03;91.44;101696.53;4134898;28;20031;-75
2022/08/10 07:14:53;;;;;;;8.02;3.45;;;19.50;99.80;;;19.16;89.76;101686.00;4130734;28;20121;-76
2022/08/10 07:16:55;;;;;;;9.63;3.53;;;19.60;99.40;;;19.23;88.96;101680.72;4118590;28;20050;-75
2022/08/10 07:18:59;;;;;;;6.38;3.40;;;19.70;99.10;;;19.35;88.95;101693.38;4132539;28;20023;-74
2022/08/10 07:21:00;;;;;;;9.30;3.33;;;19.80;99.10;;;19.35;88.68;101677.31;4119071;28;20030;-75
2022/08/10 07:23:02;;;;;;;5.68;3.13;;;19.90;99.00;;;19.39;87.88;101667.13;4119041;28;20421;-75
2022/08/10 07:25:06;;;;;;;5.95;3.08;;;20.00;98.70;;;19.55;86.43;101666.03;4125671;28;20505;-74
2022/08/10 07:27:09;;;;;;;6.70;2.95;;;20.00;98.30;;;19.58;86.20;101677.19;4118719;28;20412;-75
2022/08/10 07:29:10;;;;;;;5.82;3.05;;;20.10;98.10;;;19.77;86.18;101692.56;4118667;28;20490;-74
2022/08/10 07:31:15;;;;;;;6.63;3.40;;;20.20;98.10;;;19.71;85.77;101671.94;4118403;28;20038;-75
2022/08/10 07:33:20;;;;;;;5.47;3.25;;;20.30;97.90;;;19.83;84.55;101665.03;4119875;28;20054;-74
2022/08/10 07:35:23;;;;;;;4.25;2.90;;;20.40;97.60;;;20.12;83.32;101690.81;4118894;28;20022;-75
2022/08/10 07:37:26;;;;;;;6.93;2.95;;;20.50;97.30;;;20.09;83.13;101674.31;4118710;28;20118;-75
2022/08/10 07:39:37;;;;;;;7.75;3.20;;;20.60;97.10;;;20.19;81.36;101678.28;4118907;28;20030;-75
2022/08/10 07:41:43;;;;;;;6.18;2.67;;;20.70;96.60;;;20.24;80.16;101666.97;4118631;28;20031;-75
2022/08/10 07:43:48;;;;;;;7.10;3.00;;;20.80;96.10;;;20.37;79.57;101675.13;4118581;28;20019;-74
2022/08/10 07:45:50;;;;;;;5.10;2.95;;;20.90;95.70;;;20.49;78.04;101676.22;4129245;28;20496;-74
2022/08/10 07:48:11;;;;;;;5.25;3.30;;;21.00;95.20;;;20.60;77.34;101681.03;4139027;28;20030;-74
2022/08/10 07:50:17;;;;;;;7.82;2.60;;;21.10;95.10;;;20.76;76.59;101686.03;4139186;28;20033;-74
2022/08/10 07:52:20;;;;;;;5.65;2.60;;;21.20;94.70;;;20.93;75.48;101692.75;4137955;28;20507;-75
2022/08/10 07:54:24;;;;;;;5.38;2.80;;;21.30;94.40;;;20.95;75.77;101687.16;4137814;28;20025;-73
2022/08/10 07:56:29;;;;;;;5.05;2.28;;;21.40;94.30;;;20.98;75.65;101676.88;4139265;28;20045;-75
2022/08/10 07:58:43;;;;;;;7.57;3.03;;;21.50;94.30;;;21.13;74.47;101689.31;4137648;28;20421;-76
2022/08/10 08:00:47;;;;;;;3.72;2.13;;;21.50;93.90;;;21.18;75.45;101686.84;4138163;28;20064;-78
2022/08/10 08:02:57;;;;;;;7.07;2.58;;;21.60;94.10;;;21.30;74.51;101685.22;4136166;28;20060;-77
2022/08/10 08:05:07;;;;;;;6.63;2.60;;;21.70;93.90;;;21.44;74.21;101692.28;4136585;28;20042;-77
2022/08/10 08:07:08;;;;;;;11.95;2.83;;;21.80;93.60;;;21.46;73.66;101680.31;4137493;28;20512;-78
2022/08/10 08:09:10;;;;;;;6.43;2.45;;;21.90;93.40;;;21.59;73.25;101671.44;4137180;28;20031;-78
2022/08/10 08:11:13;;;;;;;4.68;2.33;;;22.00;93.30;;;21.68;72.83;101678.28;4137420;28;20113;-77
2022/08/10 08:13:15;;;;;;;4.13;2.25;;;22.10;93.10;;;21.79;72.48;101680.34;4137049;28;20034;-77
2022/08/10 08:15:20;;;;;;;4.82;2.42;;;22.20;92.90;;;21.90;71.20;101677.06;4137291;28;20061;-78
2022/08/10 08:17:23;;;;;;;7.93;2.70;;;22.30;92.40;;;21.97;70.16;101683.25;4137214;28;20066;-78
2022/08/10 08:19:27;;;;;;;11.02;2.30;;;22.40;91.90;;;22.02;70.08;101680.75;4132651;28;20022;-77
2022/08/10 08:21:29;;;;;;;6.82;2.50;;;22.50;92.00;;;22.13;70.87;101684.69;4121470;28;20050;-78
2022/08/10 08:23:30;;;;;;;7.13;2.53;;;22.60;92.20;;;22.22;70.17;101682.59;4121229;28;20066;-78
2022/08/10 08:25:32;;;;;;;5.20;1.85;;;22.60;92.00;;;22.20;69.96;101657.78;4127263;28;20031;-78
2022/08/10 08:27:35;;;;;;;6.53;2.92;;;22.70;91.80;;;22.44;69.35;101686.69;4121150;28;20035;-78
2022/08/10 08:29:41;;;;;;;6.15;2.28;;;22.90;91.60;;;22.50;68.90;101688.53;4121267;28;20033;-78
2022/08/10 08:31:44;;;;;;;6.00;2.28;;;22.90;91.40;;;22.52;67.89;101679.19;4121097;28;20031;-78
2022/08/10 08:33:46;;;;;;;4.70;2.03;;;23.00;91.00;;;22.63;67.58;101682.28;4121294;28;20132;-78
2022/08/10 08:35:48;;;;;;;3.83;2.15;;;23.10;90.80;;;22.72;67.08;101684.56;4121111;28;20026;-78
2022/08/10 08:37:51;;;;;;;4.03;1.98;;;23.20;90.80;;;22.88;66.78;101685.97;4121164;28;20022;-78
2022/08/10 08:39:52;;;;;;;7.03;2.17;;;23.30;90.60;;;23.02;65.52;101693.75;4121045;28;20015;-78
2022/08/10 08:42:43;;;;;;;4.57;2.40;;;23.40;90.10;;;23.13;65.28;101692.22;4121283;28;20035;-78
2022/08/10 08:45:22;;;;;;;4.47;2.10;;;23.50;90.10;;;23.23;64.75;101683.69;4136664;28;20038;-78